LGL472 LDSB-ELLX
Flight info
| Callsign | LGL472 |
|---|---|
| Flight time | N/A |
| Altitude | 24000 |
| Route | SPL DCT GIRDA DCT GEDSO DCT KUNOD L608 TEDGO DCT PITES DCT BETEX |
| Aircraft | DH8D/M-SDE2E3FGRY/H |
Departure
| Time | 2026-04-30 14:47 |
|---|---|
| Airport | Brač Airport (LDSB) |
Arrival
| Time | N/A |
|---|---|
| Airport | Luxembourg-Findel International Airport (ELLX) |
| Time | Latitude | Longitude | Altitude | Speed | Heading |
|---|---|---|---|---|---|
| 2026-04-30 14:16 | 43.28844 | 16.67985 | 1732 ft | 0 kts | 71° |
| 2026-04-30 14:42 | 43.28845 | 16.67993 | 1730 ft | 1 kts | 84° |
| 2026-04-30 14:42 | 43.28833 | 16.68010 | 1729 ft | 3 kts | 159° |
| 2026-04-30 14:42 | 43.28806 | 16.68017 | 1728 ft | 4 kts | 201° |
| 2026-04-30 14:42 | 43.28785 | 16.67997 | 1729 ft | 3 kts | 218° |
| 2026-04-30 14:43 | 43.28766 | 16.67981 | 1730 ft | 3 kts | 188° |
| 2026-04-30 14:43 | 43.28751 | 16.67993 | 1730 ft | 2 kts | 132° |
| 2026-04-30 14:43 | 43.28741 | 16.68009 | 1729 ft | 2 kts | 129° |
| 2026-04-30 14:43 | 43.28732 | 16.68023 | 1730 ft | 1 kts | 129° |
| 2026-04-30 14:44 | 43.28719 | 16.68051 | 1729 ft | 9 kts | 124° |
| 2026-04-30 14:44 | 43.28660 | 16.68058 | 1731 ft | 13 kts | 215° |
| 2026-04-30 14:44 | 43.28562 | 16.67963 | 1736 ft | 20 kts | 214° |
| 2026-04-30 14:44 | 43.28427 | 16.67832 | 1745 ft | 25 kts | 215° |
| 2026-04-30 14:45 | 43.28274 | 16.67685 | 1754 ft | 26 kts | 215° |
| 2026-04-30 14:45 | 43.28141 | 16.67558 | 1761 ft | 20 kts | 216° |
| 2026-04-30 14:45 | 43.28035 | 16.67454 | 1765 ft | 16 kts | 215° |
| 2026-04-30 14:45 | 43.27949 | 16.67371 | 1768 ft | 14 kts | 215° |
| 2026-04-30 14:46 | 43.27868 | 16.67293 | 1769 ft | 13 kts | 216° |
| 2026-04-30 14:46 | 43.27829 | 16.67230 | 1769 ft | 5 kts | 197° |
| 2026-04-30 14:46 | 43.27828 | 16.67255 | 1769 ft | 4 kts | 48° |
| 2026-04-30 14:46 | 43.27871 | 16.67295 | 1769 ft | 23 kts | 35° |
| 2026-04-30 14:47 | 43.28267 | 16.67678 | 1754 ft | 112 kts | 36° |
| 2026-04-30 14:47 | 43.29042 | 16.68431 | 1900 ft | 148 kts | 37° |
| 2026-04-30 14:47 | 43.29920 | 16.69235 | 2546 ft | 153 kts | 37° |
| 2026-04-30 14:47 | 43.30751 | 16.70042 | 3299 ft | 148 kts | 37° |
| 2026-04-30 14:48 | 43.31591 | 16.70903 | 3754 ft | 152 kts | 38° |
| 2026-04-30 14:48 | 43.32423 | 16.71782 | 4218 ft | 156 kts | 39° |
| 2026-04-30 14:48 | 43.33254 | 16.72734 | 4748 ft | 154 kts | 43° |
| 2026-04-30 14:48 | 43.34053 | 16.73742 | 5126 ft | 163 kts | 55° |
| 2026-04-30 14:49 | 43.34287 | 16.75249 | 5566 ft | 168 kts | 95° |
| 2026-04-30 14:49 | 43.33905 | 16.76763 | 6082 ft | 169 kts | 110° |
| 2026-04-30 14:49 | 43.33371 | 16.78215 | 6454 ft | 180 kts | 114° |
| 2026-04-30 14:49 | 43.32832 | 16.79709 | 7053 ft | 170 kts | 114° |
| 2026-04-30 14:50 | 43.31622 | 16.82729 | 7871 ft | 183 kts | 116° |
| 2026-04-30 14:50 | 43.30967 | 16.84256 | 8164 ft | 199 kts | 120° |
| 2026-04-30 14:51 | 43.28533 | 16.85399 | 9213 ft | 194 kts | 203° |
| 2026-04-30 14:51 | 43.27465 | 16.84167 | 9238 ft | 213 kts | 245° |
| 2026-04-30 14:51 | 43.27526 | 16.80299 | 9982 ft | 210 kts | 296° |
| 2026-04-30 14:52 | 43.28133 | 16.78460 | 10338 ft | 220 kts | 300° |
| 2026-04-30 14:52 | 43.29596 | 16.74620 | 11147 ft | 230 kts | 303° |
| 2026-04-30 14:52 | 43.30382 | 16.72716 | 11634 ft | 231 kts | 304° |
| 2026-04-30 14:53 | 43.32060 | 16.68843 | 12396 ft | 242 kts | 305° |
| 2026-04-30 14:53 | 43.32946 | 16.66852 | 12845 ft | 245 kts | 305° |
| 2026-04-30 14:54 | 43.34754 | 16.62860 | 13662 ft | 249 kts | 306° |
| 2026-04-30 14:54 | 43.36599 | 16.58829 | 14532 ft | 250 kts | 306° |
| 2026-04-30 14:55 | 43.38459 | 16.54792 | 15382 ft | 249 kts | 306° |
| 2026-04-30 14:55 | 43.39383 | 16.52790 | 15799 ft | 248 kts | 306° |
| 2026-04-30 14:55 | 43.41216 | 16.48826 | 16588 ft | 246 kts | 306° |
| 2026-04-30 14:56 | 43.43051 | 16.44858 | 17336 ft | 244 kts | 306° |
| 2026-04-30 14:56 | 43.44863 | 16.40940 | 18056 ft | 242 kts | 306° |
| 2026-04-30 14:57 | 43.45751 | 16.39019 | 18382 ft | 241 kts | 306° |
| 2026-04-30 14:57 | 43.47551 | 16.35119 | 19030 ft | 239 kts | 306° |
| 2026-04-30 14:58 | 43.49327 | 16.31280 | 19633 ft | 238 kts | 306° |
| 2026-04-30 14:58 | 43.50422 | 16.29639 | 19897 ft | 234 kts | 321° |
| 2026-04-30 14:58 | 43.53011 | 16.26935 | 20439 ft | 233 kts | 323° |
| 2026-04-30 14:59 | 43.55592 | 16.24251 | 20932 ft | 231 kts | 323° |
| 2026-04-30 15:00 | 43.59405 | 16.20257 | 21587 ft | 230 kts | 323° |
| 2026-04-30 15:00 | 43.61941 | 16.17589 | 21964 ft | 229 kts | 322° |
| 2026-04-30 15:01 | 43.64466 | 16.14927 | 22322 ft | 228 kts | 322° |
| 2026-04-30 15:01 | 43.65717 | 16.13606 | 22493 ft | 228 kts | 322° |
| 2026-04-30 15:01 | 43.68222 | 16.10958 | 22801 ft | 227 kts | 322° |
| 2026-04-30 15:02 | 43.69489 | 16.09617 | 22946 ft | 227 kts | 322° |
| 2026-04-30 15:02 | 43.70740 | 16.08293 | 23078 ft | 227 kts | 322° |
| 2026-04-30 15:03 | 43.74478 | 16.04330 | 23444 ft | 227 kts | 321° |
| 2026-04-30 15:03 | 43.76996 | 16.01658 | 23660 ft | 227 kts | 321° |
| 2026-04-30 15:04 | 43.79491 | 15.99006 | 23856 ft | 227 kts | 321° |
| 2026-04-30 15:04 | 43.83246 | 15.95009 | 24120 ft | 227 kts | 321° |
| 2026-04-30 15:05 | 43.87063 | 15.90940 | 24199 ft | 234 kts | 321° |
| 2026-04-30 15:06 | 43.89666 | 15.88160 | 24198 ft | 241 kts | 321° |
| 2026-04-30 15:06 | 43.92366 | 15.85273 | 24199 ft | 248 kts | 321° |
| 2026-04-30 15:07 | 43.95114 | 15.82332 | 24205 ft | 254 kts | 321° |
| 2026-04-30 15:07 | 43.97942 | 15.79300 | 24202 ft | 261 kts | 321° |
| 2026-04-30 15:08 | 44.00855 | 15.76176 | 24204 ft | 267 kts | 322° |
| 2026-04-30 15:08 | 44.05335 | 15.71361 | 24190 ft | 276 kts | 322° |
| 2026-04-30 15:09 | 44.08398 | 15.68065 | 24197 ft | 281 kts | 322° |
| 2026-04-30 15:09 | 44.11508 | 15.64714 | 24205 ft | 286 kts | 322° |
| 2026-04-30 15:10 | 44.14670 | 15.61301 | 24197 ft | 291 kts | 322° |
| 2026-04-30 15:11 | 44.21127 | 15.54318 | 24211 ft | 297 kts | 322° |
| 2026-04-30 15:11 | 44.24398 | 15.50774 | 24215 ft | 299 kts | 322° |
| 2026-04-30 15:12 | 44.29334 | 15.45415 | 24210 ft | 302 kts | 322° |
| 2026-04-30 15:13 | 44.32659 | 15.41798 | 24213 ft | 305 kts | 322° |
| 2026-04-30 15:14 | 44.39384 | 15.34469 | 24221 ft | 309 kts | 322° |
| 2026-04-30 15:14 | 44.44476 | 15.28906 | 24213 ft | 311 kts | 322° |
| 2026-04-30 15:16 | 44.53033 | 15.19525 | 24208 ft | 313 kts | 322° |
| 2026-04-30 15:17 | 44.59859 | 15.12017 | 24217 ft | 313 kts | 323° |
| 2026-04-30 15:18 | 44.68437 | 15.02547 | 24198 ft | 315 kts | 323° |
| 2026-04-30 15:19 | 44.73586 | 14.96847 | 24176 ft | 315 kts | 323° |